map of GAF home
GAF - Airport
Location
City:  Gafsa, Tunisia
Name:Ksar International Airport
ICAO:DTTF
IATA:GAF

Details
Type:Airport (Aerodrome, Airfield)
Use:Public/Civil, Military, International (customs port of entry)
Latitude:3424'56"N (34.415556)
Longitude:848'49"E (8.813611)
Elevation:1060 ft (323 m)
Variation:2.13E (WMM2015 magnetic declination)
0.09 annual change
Runways:1
Longest:9514 × 148 ft (2900 × 45 m), paved

Time
Time Zone:UTC+1 (DST+2)

Weather
METAR:DTTF 112000Z 20004KT 110V230 CAVOK 11/03 Q1022 NOSIG

Related Locations
Nearby:
Farthest:GIS: 11771 mi / 18944 km
Gisborne, GIS, NZ

Find:

   beyond  
but within

Other Information
Maps:
NOTAMs:
Links:
Sources:

  
  • flag of Tunisia
  

Sectional Chart

Flight Planning
at skyvector.com

Satellite Image

Google Maps Satellite view

 

Copyright © 2004-2018 Karl L. Swartz. All rights reserved.
The Great Circle Mapper name and logo are trademarks of the Great Circle Mapper.
All other trademarks mentioned herein belong to their respective owners.
Please see credits for attibutions and further copyright information.

  Follow gcmap on Facebook Follow gcmap on Twitter Follow gcmap on Google+ GCmap on LinkedIn

hCard Microformat

Geo Microformat